sensor_id;sensor_type;location;lat;lon;timestamp;P1;durP1;ratioP1;P2;durP2;ratioP2
21567;SDS011;10944;42.590;12.630;2023-05-10T00:02:09;13.25;;;9.15;;
21567;SDS011;10944;42.590;12.630;2023-05-10T00:04:35;12.27;;;8.45;;
21567;SDS011;10944;42.590;12.630;2023-05-10T00:07:00;10.88;;;8.48;;
21567;SDS011;10944;42.590;12.630;2023-05-10T00:09:26;12.80;;;8.93;;
21567;SDS011;10944;42.590;12.630;2023-05-10T00:11:52;12.18;;;9.07;;
21567;SDS011;10944;42.590;12.630;2023-05-10T00:14:18;12.50;;;9.00;;
21567;SDS011;10944;42.590;12.630;2023-05-10T00:16:44;11.63;;;8.95;;
21567;SDS011;10944;42.590;12.630;2023-05-10T00:19:10;12.43;;;8.30;;
21567;SDS011;10944;42.590;12.630;2023-05-10T00:21:36;12.80;;;8.98;;
21567;SDS011;10944;42.590;12.630;2023-05-10T00:24:01;11.05;;;8.82;;
21567;SDS011;10944;42.590;12.630;2023-05-10T00:26:27;12.98;;;8.60;;
21567;SDS011;10944;42.590;12.630;2023-05-10T00:28:53;12.57;;;8.50;;
21567;SDS011;10944;42.590;12.630;2023-05-10T00:31:19;11.48;;;9.25;;
21567;SDS011;10944;42.590;12.630;2023-05-10T00:33:44;10.98;;;8.40;;
21567;SDS011;10944;42.590;12.630;2023-05-10T00:36:10;11.85;;;8.50;;
21567;SDS011;10944;42.590;12.630;2023-05-10T00:38:36;12.02;;;8.38;;
21567;SDS011;10944;42.590;12.630;2023-05-10T00:41:03;11.32;;;8.25;;
21567;SDS011;10944;42.590;12.630;2023-05-10T00:43:28;12.55;;;8.75;;
21567;SDS011;10944;42.590;12.630;2023-05-10T00:45:54;11.43;;;8.40;;
21567;SDS011;10944;42.590;12.630;2023-05-10T00:48:21;13.85;;;8.85;;
21567;SDS011;10944;42.590;12.630;2023-05-10T00:50:47;11.93;;;8.70;;
21567;SDS011;10944;42.590;12.630;2023-05-10T00:53:13;11.23;;;8.20;;
21567;SDS011;10944;42.590;12.630;2023-05-10T00:55:40;11.50;;;7.97;;
21567;SDS011;10944;42.590;12.630;2023-05-10T00:58:06;11.40;;;8.27;;
21567;SDS011;10944;42.590;12.630;2023-05-10T01:00:33;10.18;;;8.00;;
21567;SDS011;10944;42.590;12.630;2023-05-10T01:02:59;11.68;;;8.73;;
21567;SDS011;10944;42.590;12.630;2023-05-10T01:05:25;13.50;;;8.80;;
21567;SDS011;10944;42.590;12.630;2023-05-10T01:07:52;10.05;;;8.40;;
21567;SDS011;10944;42.590;12.630;2023-05-10T01:10:18;10.48;;;8.20;;
21567;SDS011;10944;42.590;12.630;2023-05-10T01:12:45;11.60;;;8.75;;
21567;SDS011;10944;42.590;12.630;2023-05-10T01:15:12;12.43;;;8.27;;
21567;SDS011;10944;42.590;12.630;2023-05-10T01:17:39;10.55;;;8.30;;
21567;SDS011;10944;42.590;12.630;2023-05-10T01:20:09;11.38;;;8.60;;
21567;SDS011;10944;42.590;12.630;2023-05-10T01:28:44;11.57;;;8.75;;
21567;SDS011;10944;42.590;12.630;2023-05-10T01:31:55;11.73;;;8.10;;
21567;SDS011;10944;42.590;12.630;2023-05-10T01:34:40;13.93;;;9.00;;
21567;SDS011;10944;42.590;12.630;2023-05-10T01:37:17;12.82;;;8.63;;
21567;SDS011;10944;42.590;12.630;2023-05-10T01:40:08;14.38;;;9.30;;
21567;SDS011;10944;42.590;12.630;2023-05-10T01:42:51;12.55;;;8.93;;
21567;SDS011;10944;42.590;12.630;2023-05-10T01:45:41;14.27;;;9.07;;
21567;SDS011;10944;42.590;12.630;2023-05-10T01:48:15;13.82;;;9.23;;
21567;SDS011;10944;42.590;12.630;2023-05-10T01:50:43;12.07;;;9.13;;
21567;SDS011;10944;42.590;12.630;2023-05-10T01:53:11;12.13;;;9.00;;
21567;SDS011;10944;42.590;12.630;2023-05-10T01:55:42;13.27;;;9.07;;
21567;SDS011;10944;42.590;12.630;2023-05-10T01:58:15;11.82;;;9.07;;
21567;SDS011;10944;42.590;12.630;2023-05-10T02:00:45;12.68;;;8.63;;
21567;SDS011;10944;42.590;12.630;2023-05-10T02:03:13;13.18;;;9.38;;
21567;SDS011;10944;42.590;12.630;2023-05-10T02:05:41;12.15;;;9.45;;
21567;SDS011;10944;42.590;12.630;2023-05-10T02:08:10;14.98;;;9.90;;
21567;SDS011;10944;42.590;12.630;2023-05-10T02:10:37;14.10;;;10.30;;
21567;SDS011;10944;42.590;12.630;2023-05-10T02:13:05;12.50;;;9.80;;
21567;SDS011;10944;42.590;12.630;2023-05-10T02:15:32;13.63;;;9.88;;
21567;SDS011;10944;42.590;12.630;2023-05-10T02:17:59;13.45;;;9.80;;
21567;SDS011;10944;42.590;12.630;2023-05-10T02:20:26;12.75;;;9.98;;
21567;SDS011;10944;42.590;12.630;2023-05-10T02:22:54;13.52;;;10.00;;
21567;SDS011;10944;42.590;12.630;2023-05-10T02:25:21;14.40;;;10.15;;
21567;SDS011;10944;42.590;12.630;2023-05-10T02:27:48;14.60;;;9.90;;
21567;SDS011;10944;42.590;12.630;2023-05-10T02:30:15;13.80;;;10.25;;
21567;SDS011;10944;42.590;12.630;2023-05-10T02:32:43;13.55;;;9.73;;
21567;SDS011;10944;42.590;12.630;2023-05-10T02:35:10;15.35;;;10.07;;
21567;SDS011;10944;42.590;12.630;2023-05-10T02:37:37;14.77;;;9.65;;
21567;SDS011;10944;42.590;12.630;2023-05-10T02:40:05;13.25;;;9.48;;
21567;SDS011;10944;42.590;12.630;2023-05-10T02:42:32;13.35;;;10.00;;
21567;SDS011;10944;42.590;12.630;2023-05-10T02:45:01;15.05;;;10.05;;
21567;SDS011;10944;42.590;12.630;2023-05-10T02:47:28;17.63;;;10.68;;
21567;SDS011;10944;42.590;12.630;2023-05-10T02:49:54;21.20;;;9.85;;
21567;SDS011;10944;42.590;12.630;2023-05-10T02:52:22;13.05;;;9.90;;
21567;SDS011;10944;42.590;12.630;2023-05-10T02:54:52;15.43;;;10.95;;
21567;SDS011;10944;42.590;12.630;2023-05-10T02:57:28;13.50;;;9.82;;
21567;SDS011;10944;42.590;12.630;2023-05-10T02:59:56;13.38;;;10.18;;
21567;SDS011;10944;42.590;12.630;2023-05-10T03:02:23;14.68;;;9.95;;
21567;SDS011;10944;42.590;12.630;2023-05-10T03:04:49;12.25;;;9.38;;
21567;SDS011;10944;42.590;12.630;2023-05-10T03:07:14;13.60;;;9.35;;
21567;SDS011;10944;42.590;12.630;2023-05-10T03:09:41;14.18;;;9.27;;
21567;SDS011;10944;42.590;12.630;2023-05-10T03:12:11;12.60;;;9.23;;
21567;SDS011;10944;42.590;12.630;2023-05-10T03:17:30;11.88;;;9.02;;
21567;SDS011;10944;42.590;12.630;2023-05-10T03:20:03;11.77;;;9.02;;
21567;SDS011;10944;42.590;12.630;2023-05-10T03:22:37;14.23;;;9.40;;
21567;SDS011;10944;42.590;12.630;2023-05-10T03:25:10;12.52;;;8.63;;
21567;SDS011;10944;42.590;12.630;2023-05-10T03:27:37;11.18;;;8.85;;
21567;SDS011;10944;42.590;12.630;2023-05-10T03:30:07;14.25;;;9.43;;
21567;SDS011;10944;42.590;12.630;2023-05-10T03:32:35;13.32;;;9.60;;
21567;SDS011;10944;42.590;12.630;2023-05-10T03:35:08;14.65;;;10.15;;
21567;SDS011;10944;42.590;12.630;2023-05-10T03:37:35;13.27;;;9.90;;
21567;SDS011;10944;42.590;12.630;2023-05-10T03:40:01;12.48;;;9.05;;
21567;SDS011;10944;42.590;12.630;2023-05-10T03:42:27;12.88;;;9.30;;
21567;SDS011;10944;42.590;12.630;2023-05-10T03:44:53;14.65;;;9.55;;
21567;SDS011;10944;42.590;12.630;2023-05-10T03:47:19;12.38;;;9.27;;
21567;SDS011;10944;42.590;12.630;2023-05-10T03:49:45;11.77;;;8.75;;
21567;SDS011;10944;42.590;12.630;2023-05-10T03:52:10;12.43;;;8.95;;
21567;SDS011;10944;42.590;12.630;2023-05-10T03:54:37;15.68;;;9.50;;
21567;SDS011;10944;42.590;12.630;2023-05-10T03:57:03;14.68;;;9.60;;
21567;SDS011;10944;42.590;12.630;2023-05-10T03:59:29;14.23;;;9.45;;
21567;SDS011;10944;42.590;12.630;2023-05-10T04:01:55;12.13;;;9.43;;
21567;SDS011;10944;42.590;12.630;2023-05-10T04:04:21;12.48;;;9.68;;
21567;SDS011;10944;42.590;12.630;2023-05-10T04:06:48;13.20;;;9.43;;
21567;SDS011;10944;42.590;12.630;2023-05-10T04:09:14;13.38;;;9.15;;
21567;SDS011;10944;42.590;12.630;2023-05-10T04:11:40;13.63;;;9.90;;
21567;SDS011;10944;42.590;12.630;2023-05-10T04:14:05;14.88;;;9.73;;
21567;SDS011;10944;42.590;12.630;2023-05-10T04:16:31;12.30;;;9.80;;
21567;SDS011;10944;42.590;12.630;2023-05-10T04:18:57;11.70;;;9.07;;
21567;SDS011;10944;42.590;12.630;2023-05-10T04:21:22;14.38;;;9.70;;
21567;SDS011;10944;42.590;12.630;2023-05-10T04:23:48;13.82;;;9.38;;
21567;SDS011;10944;42.590;12.630;2023-05-10T04:26:14;13.50;;;9.90;;
21567;SDS011;10944;42.590;12.630;2023-05-10T04:28:40;13.90;;;9.93;;
21567;SDS011;10944;42.590;12.630;2023-05-10T04:31:06;13.30;;;10.57;;
21567;SDS011;10944;42.590;12.630;2023-05-10T04:33:33;13.57;;;9.82;;
21567;SDS011;10944;42.590;12.630;2023-05-10T04:36:00;13.48;;;9.75;;
21567;SDS011;10944;42.590;12.630;2023-05-10T04:38:26;16.15;;;9.85;;
21567;SDS011;10944;42.590;12.630;2023-05-10T04:40:52;12.73;;;9.32;;
21567;SDS011;10944;42.590;12.630;2023-05-10T04:43:18;13.60;;;9.48;;
21567;SDS011;10944;42.590;12.630;2023-05-10T04:45:45;13.07;;;9.88;;
21567;SDS011;10944;42.590;12.630;2023-05-10T04:48:11;14.48;;;9.25;;
21567;SDS011;10944;42.590;12.630;2023-05-10T04:50:37;12.85;;;9.70;;
21567;SDS011;10944;42.590;12.630;2023-05-10T04:53:04;15.68;;;10.20;;
21567;SDS011;10944;42.590;12.630;2023-05-10T04:55:30;11.50;;;9.07;;
21567;SDS011;10944;42.590;12.630;2023-05-10T04:57:55;11.80;;;8.77;;
21567;SDS011;10944;42.590;12.630;2023-05-10T05:00:22;11.43;;;8.50;;
21567;SDS011;10944;42.590;12.630;2023-05-10T05:02:48;9.70;;;7.68;;
21567;SDS011;10944;42.590;12.630;2023-05-10T05:05:14;13.45;;;7.60;;
21567;SDS011;10944;42.590;12.630;2023-05-10T05:07:40;11.27;;;7.60;;
21567;SDS011;10944;42.590;12.630;2023-05-10T05:10:06;10.70;;;7.43;;
21567;SDS011;10944;42.590;12.630;2023-05-10T05:12:33;12.25;;;7.60;;
21567;SDS011;10944;42.590;12.630;2023-05-10T05:14:59;11.20;;;8.35;;
21567;SDS011;10944;42.590;12.630;2023-05-10T05:17:25;11.18;;;8.85;;
21567;SDS011;10944;42.590;12.630;2023-05-10T05:19:50;11.48;;;8.95;;
21567;SDS011;10944;42.590;12.630;2023-05-10T05:22:16;11.80;;;8.50;;
21567;SDS011;10944;42.590;12.630;2023-05-10T05:24:44;9.80;;;7.68;;
21567;SDS011;10944;42.590;12.630;2023-05-10T05:27:10;11.95;;;7.63;;
21567;SDS011;10944;42.590;12.630;2023-05-10T05:29:35;9.65;;;7.28;;
21567;SDS011;10944;42.590;12.630;2023-05-10T05:32:01;11.85;;;7.43;;
21567;SDS011;10944;42.590;12.630;2023-05-10T05:34:27;8.20;;;6.57;;
21567;SDS011;10944;42.590;12.630;2023-05-10T05:36:52;9.98;;;7.00;;
21567;SDS011;10944;42.590;12.630;2023-05-10T05:39:18;10.27;;;7.20;;
21567;SDS011;10944;42.590;12.630;2023-05-10T05:41:44;8.98;;;7.00;;
21567;SDS011;10944;42.590;12.630;2023-05-10T05:44:11;10.48;;;7.18;;
21567;SDS011;10944;42.590;12.630;2023-05-10T05:46:36;10.30;;;7.25;;
21567;SDS011;10944;42.590;12.630;2023-05-10T05:49:03;12.23;;;7.00;;
21567;SDS011;10944;42.590;12.630;2023-05-10T05:51:28;10.02;;;6.88;;
21567;SDS011;10944;42.590;12.630;2023-05-10T05:53:54;10.88;;;7.60;;
21567;SDS011;10944;42.590;12.630;2023-05-10T05:56:20;10.77;;;6.68;;
21567;SDS011;10944;42.590;12.630;2023-05-10T05:58:49;12.10;;;6.97;;
21567;SDS011;10944;42.590;12.630;2023-05-10T06:01:15;10.57;;;6.85;;
21567;SDS011;10944;42.590;12.630;2023-05-10T06:03:41;8.85;;;6.93;;
21567;SDS011;10944;42.590;12.630;2023-05-10T06:06:07;10.20;;;6.90;;
21567;SDS011;10944;42.590;12.630;2023-05-10T06:08:33;11.30;;;7.20;;
21567;SDS011;10944;42.590;12.630;2023-05-10T06:10:59;10.00;;;6.88;;
21567;SDS011;10944;42.590;12.630;2023-05-10T06:13:25;11.82;;;6.95;;
21567;SDS011;10944;42.590;12.630;2023-05-10T06:15:57;12.25;;;7.78;;
21567;SDS011;10944;42.590;12.630;2023-05-10T06:18:23;14.32;;;7.93;;
21567;SDS011;10944;42.590;12.630;2023-05-10T06:20:49;10.18;;;7.88;;
21567;SDS011;10944;42.590;12.630;2023-05-10T06:23:15;10.18;;;7.60;;
21567;SDS011;10944;42.590;12.630;2023-05-10T06:25:41;10.05;;;7.65;;
21567;SDS011;10944;42.590;12.630;2023-05-10T06:28:06;11.93;;;8.25;;
21567;SDS011;10944;42.590;12.630;2023-05-10T06:30:32;11.52;;;7.63;;
21567;SDS011;10944;42.590;12.630;2023-05-10T06:32:58;11.00;;;7.50;;
21567;SDS011;10944;42.590;12.630;2023-05-10T06:35:24;10.05;;;7.90;;
21567;SDS011;10944;42.590;12.630;2023-05-10T06:37:50;11.85;;;7.68;;
21567;SDS011;10944;42.590;12.630;2023-05-10T06:40:16;11.20;;;8.35;;
21567;SDS011;10944;42.590;12.630;2023-05-10T06:42:42;11.70;;;8.52;;
21567;SDS011;10944;42.590;12.630;2023-05-10T06:45:10;11.40;;;8.57;;
21567;SDS011;10944;42.590;12.630;2023-05-10T06:47:35;11.05;;;8.55;;
21567;SDS011;10944;42.590;12.630;2023-05-10T06:50:01;12.18;;;8.60;;
21567;SDS011;10944;42.590;12.630;2023-05-10T06:52:27;16.25;;;9.88;;
21567;SDS011;10944;42.590;12.630;2023-05-10T06:54:53;14.23;;;9.48;;
21567;SDS011;10944;42.590;12.630;2023-05-10T06:57:19;16.77;;;9.80;;
21567;SDS011;10944;42.590;12.630;2023-05-10T06:59:45;14.70;;;9.23;;
21567;SDS011;10944;42.590;12.630;2023-05-10T07:02:11;13.00;;;9.82;;
21567;SDS011;10944;42.590;12.630;2023-05-10T07:04:37;14.02;;;10.00;;
21567;SDS011;10944;42.590;12.630;2023-05-10T07:07:03;14.38;;;10.02;;
21567;SDS011;10944;42.590;12.630;2023-05-10T07:09:28;13.50;;;10.30;;
21567;SDS011;10944;42.590;12.630;2023-05-10T07:11:55;14.38;;;10.60;;
21567;SDS011;10944;42.590;12.630;2023-05-10T07:14:22;15.70;;;10.43;;
21567;SDS011;10944;42.590;12.630;2023-05-10T07:16:48;13.68;;;10.50;;
21567;SDS011;10944;42.590;12.630;2023-05-10T07:19:14;12.68;;;10.07;;
21567;SDS011;10944;42.590;12.630;2023-05-10T07:21:40;13.27;;;9.88;;
21567;SDS011;10944;42.590;12.630;2023-05-10T07:24:08;13.07;;;9.82;;
21567;SDS011;10944;42.590;12.630;2023-05-10T07:26:34;12.95;;;10.52;;
21567;SDS011;10944;42.590;12.630;2023-05-10T07:28:59;12.90;;;9.07;;
21567;SDS011;10944;42.590;12.630;2023-05-10T07:31:26;13.75;;;9.95;;
21567;SDS011;10944;42.590;12.630;2023-05-10T07:33:52;12.38;;;9.07;;
21567;SDS011;10944;42.590;12.630;2023-05-10T07:36:18;12.68;;;8.80;;
21567;SDS011;10944;42.590;12.630;2023-05-10T07:38:44;12.85;;;9.07;;
21567;SDS011;10944;42.590;12.630;2023-05-10T07:41:11;12.95;;;9.15;;
21567;SDS011;10944;42.590;12.630;2023-05-10T07:43:37;13.02;;;8.43;;
21567;SDS011;10944;42.590;12.630;2023-05-10T07:46:03;11.60;;;8.23;;
21567;SDS011;10944;42.590;12.630;2023-05-10T07:48:29;11.02;;;8.43;;
21567;SDS011;10944;42.590;12.630;2023-05-10T07:50:54;9.88;;;7.78;;
21567;SDS011;10944;42.590;12.630;2023-05-10T07:53:20;11.60;;;7.70;;
21567;SDS011;10944;42.590;12.630;2023-05-10T07:55:58;10.18;;;7.85;;
21567;SDS011;10944;42.590;12.630;2023-05-10T07:58:24;15.45;;;9.63;;
21567;SDS011;10944;42.590;12.630;2023-05-10T08:00:50;11.10;;;8.23;;
21567;SDS011;10944;42.590;12.630;2023-05-10T08:03:16;10.95;;;8.23;;
21567;SDS011;10944;42.590;12.630;2023-05-10T08:05:41;15.02;;;10.82;;
21567;SDS011;10944;42.590;12.630;2023-05-10T08:08:07;35.13;;;21.67;;
21567;SDS011;10944;42.590;12.630;2023-05-10T08:10:33;14.45;;;9.77;;
21567;SDS011;10944;42.590;12.630;2023-05-10T08:12:59;12.63;;;9.45;;
21567;SDS011;10944;42.590;12.630;2023-05-10T08:15:24;11.27;;;8.93;;
21567;SDS011;10944;42.590;12.630;2023-05-10T08:17:53;10.70;;;8.15;;
21567;SDS011;10944;42.590;12.630;2023-05-10T08:20:19;12.18;;;7.95;;
21567;SDS011;10944;42.590;12.630;2023-05-10T08:22:45;11.68;;;8.00;;
21567;SDS011;10944;42.590;12.630;2023-05-10T08:25:12;11.32;;;7.85;;
21567;SDS011;10944;42.590;12.630;2023-05-10T08:27:37;12.05;;;8.32;;
21567;SDS011;10944;42.590;12.630;2023-05-10T08:30:03;10.43;;;7.65;;
21567;SDS011;10944;42.590;12.630;2023-05-10T08:32:29;11.30;;;8.20;;
21567;SDS011;10944;42.590;12.630;2023-05-10T08:34:55;9.38;;;7.30;;
21567;SDS011;10944;42.590;12.630;2023-05-10T08:37:22;9.95;;;7.60;;
21567;SDS011;10944;42.590;12.630;2023-05-10T08:39:48;10.63;;;7.43;;
21567;SDS011;10944;42.590;12.630;2023-05-10T08:42:15;11.05;;;7.22;;
21567;SDS011;10944;42.590;12.630;2023-05-10T08:44:48;14.00;;;7.38;;
21567;SDS011;10944;42.590;12.630;2023-05-10T08:47:15;11.43;;;7.78;;
21567;SDS011;10944;42.590;12.630;2023-05-10T08:49:42;11.10;;;8.15;;
21567;SDS011;10944;42.590;12.630;2023-05-10T08:52:13;11.60;;;7.70;;
21567;SDS011;10944;42.590;12.630;2023-05-10T08:54:41;11.70;;;7.80;;
21567;SDS011;10944;42.590;12.630;2023-05-10T08:57:10;21.35;;;15.20;;
21567;SDS011;10944;42.590;12.630;2023-05-10T08:59:36;9.93;;;7.78;;
21567;SDS011;10944;42.590;12.630;2023-05-10T09:02:04;11.05;;;7.68;;
21567;SDS011;10944;42.590;12.630;2023-05-10T09:04:30;11.25;;;7.82;;
21567;SDS011;10944;42.590;12.630;2023-05-10T09:06:56;10.73;;;8.10;;
21567;SDS011;10944;42.590;12.630;2023-05-10T09:09:22;8.93;;;7.72;;
21567;SDS011;10944;42.590;12.630;2023-05-10T09:11:50;10.68;;;7.80;;
21567;SDS011;10944;42.590;12.630;2023-05-10T09:14:16;11.38;;;7.95;;
21567;SDS011;10944;42.590;12.630;2023-05-10T09:16:43;10.55;;;8.02;;
21567;SDS011;10944;42.590;12.630;2023-05-10T09:19:09;10.85;;;7.80;;
21567;SDS011;10944;42.590;12.630;2023-05-10T09:21:35;9.65;;;7.68;;
21567;SDS011;10944;42.590;12.630;2023-05-10T09:24:06;10.48;;;7.55;;
21567;SDS011;10944;42.590;12.630;2023-05-10T09:26:33;11.52;;;7.20;;
21567;SDS011;10944;42.590;12.630;2023-05-10T09:29:01;10.63;;;7.53;;
21567;SDS011;10944;42.590;12.630;2023-05-10T09:34:16;10.82;;;7.43;;
21567;SDS011;10944;42.590;12.630;2023-05-10T09:36:53;10.60;;;7.95;;
21567;SDS011;10944;42.590;12.630;2023-05-10T09:39:19;9.82;;;7.20;;
21567;SDS011;10944;42.590;12.630;2023-05-10T09:41:45;9.75;;;7.60;;
21567;SDS011;10944;42.590;12.630;2023-05-10T09:44:12;9.80;;;7.32;;
21567;SDS011;10944;42.590;12.630;2023-05-10T09:46:45;8.98;;;7.50;;
21567;SDS011;10944;42.590;12.630;2023-05-10T09:49:14;10.73;;;7.93;;
21567;SDS011;10944;42.590;12.630;2023-05-10T09:51:40;15.45;;;8.52;;
21567;SDS011;10944;42.590;12.630;2023-05-10T09:54:13;10.98;;;7.75;;
21567;SDS011;10944;42.590;12.630;2023-05-10T09:56:40;11.00;;;7.82;;
21567;SDS011;10944;42.590;12.630;2023-05-10T09:59:07;11.65;;;8.35;;
21567;SDS011;10944;42.590;12.630;2023-05-10T10:01:36;11.75;;;8.48;;
21567;SDS011;10944;42.590;12.630;2023-05-10T10:04:03;11.10;;;8.40;;
21567;SDS011;10944;42.590;12.630;2023-05-10T10:06:37;10.73;;;8.25;;
21567;SDS011;10944;42.590;12.630;2023-05-10T10:09:04;12.38;;;8.40;;
21567;SDS011;10944;42.590;12.630;2023-05-10T10:11:31;12.45;;;9.02;;
21567;SDS011;10944;42.590;12.630;2023-05-10T10:13:58;10.95;;;8.57;;
21567;SDS011;10944;42.590;12.630;2023-05-10T10:16:24;11.40;;;8.18;;
21567;SDS011;10944;42.590;12.630;2023-05-10T10:18:52;12.93;;;7.57;;
21567;SDS011;10944;42.590;12.630;2023-05-10T10:21:17;11.48;;;8.18;;
21567;SDS011;10944;42.590;12.630;2023-05-10T10:23:44;10.07;;;7.53;;
21567;SDS011;10944;42.590;12.630;2023-05-10T10:26:11;11.00;;;8.32;;
21567;SDS011;10944;42.590;12.630;2023-05-10T10:31:12;15.80;;;10.40;;
21567;SDS011;10944;42.590;12.630;2023-05-10T10:34:06;29.95;;;19.00;;
21567;SDS011;10944;42.590;12.630;2023-05-10T10:36:47;18.08;;;12.68;;
21567;SDS011;10944;42.590;12.630;2023-05-10T10:39:13;24.88;;;15.05;;
21567;SDS011;10944;42.590;12.630;2023-05-10T10:41:41;12.68;;;9.27;;
21567;SDS011;10944;42.590;12.630;2023-05-10T10:55:10;10.57;;;8.05;;
21567;SDS011;10944;42.590;12.630;2023-05-10T10:57:43;12.68;;;7.80;;
21567;SDS011;10944;42.590;12.630;2023-05-10T11:02:46;16.55;;;10.30;;
21567;SDS011;10944;42.590;12.630;2023-05-10T11:07:54;12.32;;;8.65;;
21567;SDS011;10944;42.590;12.630;2023-05-10T11:10:21;12.05;;;8.15;;
21567;SDS011;10944;42.590;12.630;2023-05-10T11:13:07;13.38;;;8.25;;
21567;SDS011;10944;42.590;12.630;2023-05-10T11:15:38;11.45;;;8.18;;
21567;SDS011;10944;42.590;12.630;2023-05-10T11:18:17;10.93;;;7.55;;
21567;SDS011;10944;42.590;12.630;2023-05-10T11:20:45;9.88;;;7.97;;
21567;SDS011;10944;42.590;12.630;2023-05-10T11:23:16;10.45;;;8.27;;
21567;SDS011;10944;42.590;12.630;2023-05-10T11:25:43;12.50;;;7.78;;
21567;SDS011;10944;42.590;12.630;2023-05-10T11:28:09;9.95;;;7.47;;
21567;SDS011;10944;42.590;12.630;2023-05-10T11:30:36;11.10;;;8.07;;
21567;SDS011;10944;42.590;12.630;2023-05-10T11:33:04;13.90;;;10.18;;
21567;SDS011;10944;42.590;12.630;2023-05-10T11:35:31;23.00;;;15.95;;
21567;SDS011;10944;42.590;12.630;2023-05-10T11:38:07;10.05;;;7.97;;
21567;SDS011;10944;42.590;12.630;2023-05-10T11:40:34;10.52;;;8.15;;
21567;SDS011;10944;42.590;12.630;2023-05-10T11:43:00;10.60;;;8.20;;
21567;SDS011;10944;42.590;12.630;2023-05-10T11:45:26;10.73;;;8.65;;
21567;SDS011;10944;42.590;12.630;2023-05-10T11:47:57;10.30;;;8.23;;
21567;SDS011;10944;42.590;12.630;2023-05-10T11:50:23;10.80;;;8.50;;
21567;SDS011;10944;42.590;12.630;2023-05-10T11:52:52;13.45;;;9.15;;
21567;SDS011;10944;42.590;12.630;2023-05-10T11:55:18;10.10;;;7.60;;
21567;SDS011;10944;42.590;12.630;2023-05-10T11:57:44;12.65;;;7.95;;
21567;SDS011;10944;42.590;12.630;2023-05-10T12:00:11;9.43;;;7.45;;
21567;SDS011;10944;42.590;12.630;2023-05-10T12:02:40;11.02;;;8.40;;
21567;SDS011;10944;42.590;12.630;2023-05-10T12:05:06;10.63;;;8.20;;
21567;SDS011;10944;42.590;12.630;2023-05-10T12:07:32;9.57;;;7.78;;
21567;SDS011;10944;42.590;12.630;2023-05-10T12:10:02;11.57;;;8.88;;
21567;SDS011;10944;42.590;12.630;2023-05-10T12:12:34;11.80;;;8.98;;
21567;SDS011;10944;42.590;12.630;2023-05-10T12:15:04;13.02;;;9.05;;
21567;SDS011;10944;42.590;12.630;2023-05-10T12:17:31;12.48;;;8.88;;
21567;SDS011;10944;42.590;12.630;2023-05-10T12:20:12;12.95;;;9.18;;
21567;SDS011;10944;42.590;12.630;2023-05-10T12:22:40;14.32;;;9.23;;
21567;SDS011;10944;42.590;12.630;2023-05-10T12:25:06;12.77;;;9.75;;
21567;SDS011;10944;42.590;12.630;2023-05-10T12:27:33;12.32;;;9.88;;
21567;SDS011;10944;42.590;12.630;2023-05-10T12:29:59;12.90;;;10.02;;
21567;SDS011;10944;42.590;12.630;2023-05-10T12:32:41;13.30;;;9.55;;
21567;SDS011;10944;42.590;12.630;2023-05-10T12:35:07;14.65;;;10.70;;
21567;SDS011;10944;42.590;12.630;2023-05-10T12:37:33;12.55;;;9.90;;
21567;SDS011;10944;42.590;12.630;2023-05-10T12:40:04;14.35;;;10.48;;
21567;SDS011;10944;42.590;12.630;2023-05-10T12:42:31;13.77;;;10.45;;
21567;SDS011;10944;42.590;12.630;2023-05-10T12:44:57;14.40;;;10.73;;
21567;SDS011;10944;42.590;12.630;2023-05-10T12:47:23;15.88;;;10.13;;
21567;SDS011;10944;42.590;12.630;2023-05-10T12:49:49;15.57;;;10.77;;
21567;SDS011;10944;42.590;12.630;2023-05-10T12:52:16;18.27;;;11.38;;
21567;SDS011;10944;42.590;12.630;2023-05-10T12:54:41;19.27;;;11.70;;
21567;SDS011;10944;42.590;12.630;2023-05-10T12:57:07;17.17;;;12.85;;
21567;SDS011;10944;42.590;12.630;2023-05-10T12:59:33;15.07;;;12.40;;
21567;SDS011;10944;42.590;12.630;2023-05-10T13:01:58;17.65;;;12.55;;
21567;SDS011;10944;42.590;12.630;2023-05-10T13:04:24;16.52;;;11.38;;
21567;SDS011;10944;42.590;12.630;2023-05-10T13:06:50;14.80;;;11.38;;
21567;SDS011;10944;42.590;12.630;2023-05-10T13:09:16;15.85;;;12.45;;
21567;SDS011;10944;42.590;12.630;2023-05-10T13:11:42;15.85;;;12.40;;
21567;SDS011;10944;42.590;12.630;2023-05-10T13:14:07;16.05;;;11.95;;
21567;SDS011;10944;42.590;12.630;2023-05-10T13:16:33;15.88;;;10.35;;
21567;SDS011;10944;42.590;12.630;2023-05-10T13:18:59;16.27;;;10.93;;
21567;SDS011;10944;42.590;12.630;2023-05-10T13:21:25;16.77;;;11.77;;
21567;SDS011;10944;42.590;12.630;2023-05-10T13:23:50;14.05;;;10.52;;
21567;SDS011;10944;42.590;12.630;2023-05-10T13:26:16;13.57;;;10.20;;
21567;SDS011;10944;42.590;12.630;2023-05-10T13:28:42;14.02;;;11.10;;
21567;SDS011;10944;42.590;12.630;2023-05-10T13:31:08;12.52;;;9.40;;
21567;SDS011;10944;42.590;12.630;2023-05-10T13:33:34;13.40;;;9.95;;
21567;SDS011;10944;42.590;12.630;2023-05-10T13:36:00;12.13;;;9.77;;
21567;SDS011;10944;42.590;12.630;2023-05-10T13:38:25;11.80;;;9.50;;
21567;SDS011;10944;42.590;12.630;2023-05-10T13:40:51;12.73;;;9.77;;
21567;SDS011;10944;42.590;12.630;2023-05-10T13:43:18;13.68;;;9.52;;
21567;SDS011;10944;42.590;12.630;2023-05-10T13:45:44;12.00;;;8.55;;
21567;SDS011;10944;42.590;12.630;2023-05-10T13:48:09;9.20;;;7.10;;
21567;SDS011;10944;42.590;12.630;2023-05-10T13:50:35;10.68;;;7.72;;
21567;SDS011;10944;42.590;12.630;2023-05-10T13:53:01;10.20;;;8.48;;
21567;SDS011;10944;42.590;12.630;2023-05-10T13:55:26;10.15;;;7.75;;
21567;SDS011;10944;42.590;12.630;2023-05-10T13:57:53;11.75;;;7.95;;
21567;SDS011;10944;42.590;12.630;2023-05-10T14:00:19;10.73;;;7.35;;
21567;SDS011;10944;42.590;12.630;2023-05-10T14:02:45;10.48;;;7.13;;
21567;SDS011;10944;42.590;12.630;2023-05-10T14:05:10;7.85;;;6.15;;
21567;SDS011;10944;42.590;12.630;2023-05-10T14:07:37;8.43;;;5.90;;
21567;SDS011;10944;42.590;12.630;2023-05-10T14:10:02;9.25;;;6.10;;
21567;SDS011;10944;42.590;12.630;2023-05-10T14:12:28;7.13;;;5.43;;
21567;SDS011;10944;42.590;12.630;2023-05-10T14:14:54;8.30;;;5.30;;
21567;SDS011;10944;42.590;12.630;2023-05-10T14:17:20;8.10;;;5.70;;
21567;SDS011;10944;42.590;12.630;2023-05-10T14:19:47;10.88;;;5.82;;
21567;SDS011;10944;42.590;12.630;2023-05-10T14:22:12;10.13;;;5.95;;
21567;SDS011;10944;42.590;12.630;2023-05-10T14:24:38;9.52;;;5.53;;
21567;SDS011;10944;42.590;12.630;2023-05-10T14:27:04;8.05;;;4.80;;
21567;SDS011;10944;42.590;12.630;2023-05-10T14:29:30;7.63;;;4.28;;
21567;SDS011;10944;42.590;12.630;2023-05-10T14:31:57;6.32;;;4.10;;
21567;SDS011;10944;42.590;12.630;2023-05-10T14:34:22;7.95;;;3.85;;
21567;SDS011;10944;42.590;12.630;2023-05-10T14:36:48;5.57;;;3.50;;
21567;SDS011;10944;42.590;12.630;2023-05-10T14:39:14;8.90;;;4.25;;
21567;SDS011;10944;42.590;12.630;2023-05-10T14:41:40;6.60;;;3.38;;
21567;SDS011;10944;42.590;12.630;2023-05-10T14:44:07;7.95;;;3.40;;
21567;SDS011;10944;42.590;12.630;2023-05-10T14:46:33;5.78;;;3.30;;
21567;SDS011;10944;42.590;12.630;2023-05-10T14:48:59;4.70;;;3.15;;
21567;SDS011;10944;42.590;12.630;2023-05-10T14:51:25;8.75;;;3.35;;
21567;SDS011;10944;42.590;12.630;2023-05-10T14:53:50;7.00;;;3.28;;